createdAt,value
2019-03-27T00:01:48.816Z,99304.70
2019-03-27T00:04:20.043Z,99304.28
2019-03-27T00:06:51.101Z,99305.14
2019-03-27T00:09:22.153Z,99297.82
2019-03-27T00:11:53.185Z,99296.09
2019-03-27T00:14:24.251Z,99294.38
2019-03-27T00:16:55.482Z,99289.63
2019-03-27T00:19:26.525Z,99288.78
2019-03-27T00:21:58.076Z,99290.48
2019-03-27T00:24:29.035Z,99287.04
2019-03-27T00:26:59.973Z,99291.34
2019-03-27T00:29:30.949Z,99286.61
2019-03-27T00:32:01.999Z,99289.17
2019-03-27T00:34:33.033Z,99287.45
2019-03-27T00:37:04.109Z,99287.88
2019-03-27T00:39:35.154Z,99290.91
2019-03-27T00:42:06.251Z,99297.77
2019-03-27T00:44:37.262Z,99294.33
2019-03-27T00:47:08.267Z,99294.77
2019-03-27T00:49:39.292Z,99298.21
2019-03-27T00:52:10.249Z,99298.66
2019-03-27T00:54:41.226Z,99303.39
2019-03-27T00:57:12.363Z,99296.09
2019-03-27T00:59:43.385Z,99297.81
2019-03-27T01:02:14.495Z,99300.80
2019-03-27T01:04:45.515Z,99299.08
2019-03-27T01:07:16.557Z,99296.52
2019-03-27T01:09:47.523Z,99290.91
2019-03-27T01:12:18.543Z,99299.95
2019-03-27T01:14:49.602Z,99289.61
2019-03-27T01:17:20.764Z,99288.32
2019-03-27T01:19:51.915Z,99286.20
2019-03-27T01:22:22.933Z,99291.77
2019-03-27T01:24:53.988Z,99287.48
2019-03-27T01:27:24.999Z,99291.36
2019-03-27T01:29:55.980Z,99289.20
2019-03-27T01:32:27.021Z,99287.05
2019-03-27T01:34:58.043Z,99278.03
2019-03-27T01:37:29.020Z,99284.45
2019-03-27T01:40:00.375Z,99281.88
2019-03-27T01:42:31.349Z,99284.03
2019-03-27T01:45:02.434Z,99293.50
2019-03-27T01:47:33.541Z,99283.17
2019-03-27T01:50:07.339Z,99288.34
2019-03-27T01:52:38.411Z,99284.47
2019-03-27T01:55:10.036Z,99294.36
2019-03-27T01:57:41.003Z,99293.92
2019-03-27T02:00:12.430Z,99295.22
2019-03-27T02:02:43.462Z,99292.22
2019-03-27T02:05:14.609Z,99288.34
2019-03-27T02:07:45.580Z,99291.75
2019-03-27T02:10:16.919Z,99298.21
2019-03-27T02:12:47.870Z,99295.20
2019-03-27T02:15:18.970Z,99294.36
2019-03-27T02:17:49.859Z,99291.31
2019-03-27T02:20:20.806Z,99293.92
2019-03-27T02:22:51.747Z,99291.77
2019-03-27T02:25:22.700Z,99295.19
2019-03-27T02:27:53.605Z,99290.05
2019-03-27T02:30:24.591Z,99290.89
2019-03-27T02:32:55.540Z,99290.92
2019-03-27T02:35:26.554Z,99287.91
2019-03-27T02:37:57.551Z,99299.50
2019-03-27T02:40:28.513Z,99296.92
2019-03-27T02:42:59.478Z,99294.34
2019-03-27T02:45:31.775Z,99297.79
2019-03-27T02:48:02.813Z,99297.78
2019-03-27T02:50:33.710Z,99293.92
2019-03-27T02:53:04.857Z,99293.05
2019-03-27T02:55:35.980Z,99299.52
2019-03-27T02:58:06.882Z,99298.23
2019-03-27T03:00:37.896Z,99297.80
2019-03-27T03:03:08.859Z,99294.78
2019-03-27T03:05:39.951Z,99294.33
2019-03-27T03:08:10.910Z,99299.06
2019-03-27T03:10:45.701Z,99297.34
2019-03-27T03:13:14.531Z,99295.19
2019-03-27T03:15:45.452Z,99297.77
2019-03-27T03:18:16.397Z,99296.48
2019-03-27T03:20:47.427Z,99296.47
2019-03-27T03:23:18.433Z,99293.49
2019-03-27T03:25:49.410Z,99287.45
2019-03-27T03:28:20.370Z,99290.47
2019-03-27T03:30:51.418Z,99284.87
2019-03-27T03:33:22.516Z,99285.75
2019-03-27T03:35:53.593Z,99290.03
2019-03-27T03:38:24.512Z,99289.17
2019-03-27T03:40:55.699Z,99290.06
2019-03-27T03:43:26.912Z,99286.61
2019-03-27T03:45:57.963Z,99293.07
2019-03-27T03:48:29.105Z,99296.94
2019-03-27T03:51:01.624Z,99298.66
2019-03-27T03:53:33.252Z,99299.53
2019-03-27T03:56:04.750Z,99302.97
2019-03-27T03:58:37.937Z,99301.69
2019-03-27T04:01:10.233Z,99306.84
2019-03-27T04:03:43.205Z,99311.16
2019-03-27T04:06:14.352Z,99316.32
2019-03-27T04:08:45.230Z,99311.59
2019-03-27T04:11:16.405Z,99315.47
2019-03-27T04:13:47.347Z,99316.76
2019-03-27T04:16:18.253Z,99313.74
2019-03-27T04:18:49.285Z,99315.47
2019-03-27T04:21:20.218Z,99322.78
2019-03-27T04:23:51.109Z,99330.08
2019-03-27T04:26:22.071Z,99328.36
2019-03-27T04:28:53.065Z,99327.50
2019-03-27T04:31:23.981Z,99330.95
2019-03-27T04:33:54.954Z,99339.55
2019-03-27T04:36:25.881Z,99333.95
2019-03-27T04:38:56.766Z,99336.53
2019-03-27T04:41:27.675Z,99334.81
2019-03-27T04:43:58.692Z,99330.52
2019-03-27T04:46:29.623Z,99336.98
2019-03-27T04:49:00.679Z,99335.70
2019-03-27T04:51:31.715Z,99337.39
2019-03-27T04:54:02.705Z,99341.27
2019-03-27T04:56:33.660Z,99338.69
2019-03-27T04:59:04.847Z,99338.68
2019-03-27T05:01:35.802Z,99343.86
2019-03-27T05:04:07.931Z,99348.59
2019-03-27T05:06:38.911Z,99344.74
2019-03-27T05:09:10.489Z,99346.45
2019-03-27T05:11:41.572Z,99346.45
2019-03-27T05:14:12.496Z,99345.59
2019-03-27T05:16:43.851Z,99344.73
2019-03-27T05:19:15.042Z,99344.73
2019-03-27T05:21:45.910Z,99352.48
2019-03-27T05:24:16.959Z,99352.92
2019-03-27T05:26:47.827Z,99355.48
2019-03-27T05:29:18.790Z,99350.73
2019-03-27T05:31:49.834Z,99358.50
2019-03-27T05:34:21.238Z,99356.77
2019-03-27T05:36:57.467Z,99359.81
2019-03-27T05:39:30.033Z,99363.23
2019-03-27T05:42:00.916Z,99367.11
2019-03-27T05:44:31.823Z,99365.83
2019-03-27T05:47:04.928Z,99365.38
2019-03-27T05:49:36.061Z,99367.51
2019-03-27T05:52:07.064Z,99375.27
2019-03-27T05:54:38.279Z,99373.98
2019-03-27T05:57:09.433Z,99383.87
2019-03-27T05:59:44.145Z,99385.16
2019-03-27T06:02:15.359Z,99387.74
2019-03-27T06:04:46.301Z,99386.86
2019-03-27T06:07:19.346Z,99391.58
2019-03-27T06:09:50.279Z,99398.03
2019-03-27T06:12:21.253Z,99394.58
2019-03-27T06:14:53.868Z,99398.44
2019-03-27T06:17:28.127Z,99398.44
2019-03-27T06:19:59.206Z,99404.88
2019-03-27T06:22:30.240Z,99402.66
2019-03-27T06:25:01.281Z,99404.30
2019-03-27T06:27:32.274Z,99406.03
2019-03-27T06:30:03.841Z,99402.48
2019-03-27T06:32:35.974Z,99407.19
2019-03-27T06:35:08.544Z,99404.98
2019-03-27T06:37:39.623Z,99412.32
2019-03-27T06:40:10.974Z,99407.57
2019-03-27T06:42:42.138Z,99413.89
2019-03-27T06:45:13.175Z,99405.63
2019-03-27T06:47:44.255Z,99409.92
2019-03-27T06:50:16.312Z,99411.16
2019-03-27T06:52:47.636Z,99417.45
2019-03-27T06:55:18.966Z,99421.28
2019-03-27T06:57:50.004Z,99422.14
2019-03-27T07:00:24.115Z,99425.97
2019-03-27T07:02:55.256Z,99428.56
2019-03-27T07:05:26.433Z,99428.96
2019-03-27T07:07:57.666Z,99434.47
2019-03-27T07:10:28.684Z,99425.78
2019-03-27T07:12:59.692Z,99434.70
2019-03-27T07:15:31.082Z,99428.42
2019-03-27T07:18:02.058Z,99425.09
2019-03-27T07:20:33.108Z,99424.60
2019-03-27T07:23:04.606Z,99424.39
2019-03-27T07:25:36.524Z,99428.50
2019-03-27T07:28:07.619Z,99432.62
2019-03-27T07:30:38.600Z,99434.97
2019-03-27T07:33:09.833Z,99431.34
2019-03-27T07:35:40.869Z,99433.69
2019-03-27T07:38:11.832Z,99440.83
2019-03-27T07:40:43.132Z,99450.05
2019-03-27T07:43:14.084Z,99452.36
2019-03-27T07:45:45.156Z,99454.98
2019-03-27T07:48:16.046Z,99455.95
2019-03-27T07:50:47.043Z,99455.08
2019-03-27T07:53:17.958Z,99448.56
2019-03-27T07:55:48.940Z,99451.69
2019-03-27T07:58:20.026Z,99450.42
2019-03-27T08:00:50.900Z,99454.15
2019-03-27T08:03:21.924Z,99459.44
2019-03-27T08:05:53.058Z,99461.01
2019-03-27T08:08:24.277Z,99464.61
2019-03-27T08:10:55.374Z,99469.81
2019-03-27T08:13:26.514Z,99467.95
2019-03-27T08:15:57.542Z,99466.61
2019-03-27T08:18:28.562Z,99462.31
2019-03-27T08:20:59.585Z,99464.15
2019-03-27T08:23:30.736Z,99464.02
2019-03-27T08:26:01.731Z,99460.73
2019-03-27T08:28:32.606Z,99458.38
2019-03-27T08:31:03.679Z,99457.55
2019-03-27T08:33:34.586Z,99457.55
2019-03-27T08:36:05.576Z,99457.78
2019-03-27T08:38:36.683Z,99461.47
2019-03-27T08:41:07.629Z,99457.22
2019-03-27T08:43:38.556Z,99463.38
2019-03-27T08:46:09.588Z,99456.97
2019-03-27T08:48:40.522Z,99456.89
2019-03-27T08:51:11.468Z,99459.67
2019-03-27T08:53:42.421Z,99450.33
2019-03-27T08:56:13.517Z,99460.78
2019-03-27T08:58:44.726Z,99460.81
2019-03-27T09:01:15.729Z,99462.61
2019-03-27T09:03:46.904Z,99452.70
2019-03-27T09:06:17.866Z,99451.93
2019-03-27T09:08:48.897Z,99447.94
2019-03-27T09:11:20.387Z,99449.69
2019-03-27T09:13:51.371Z,99448.49
2019-03-27T09:16:22.429Z,99451.14
2019-03-27T09:18:53.493Z,99452.99
2019-03-27T09:21:24.543Z,99458.16
2019-03-27T09:23:55.430Z,99462.91
2019-03-27T09:26:26.645Z,99455.20
2019-03-27T09:28:57.509Z,99449.61
2019-03-27T09:31:28.493Z,99449.97
2019-03-27T09:33:59.503Z,99453.27
2019-03-27T09:36:30.531Z,99451.23
2019-03-27T09:39:01.493Z,99452.47
2019-03-27T09:41:32.614Z,99455.17
2019-03-27T09:44:04.316Z,99452.80
2019-03-27T09:46:35.307Z,99450.78
2019-03-27T09:49:06.196Z,99454.73
2019-03-27T09:51:37.183Z,99456.62
2019-03-27T09:54:08.247Z,99458.27
2019-03-27T09:56:41.945Z,99452.83
2019-03-27T09:59:14.526Z,99457.33
2019-03-27T10:01:45.598Z,99457.88
2019-03-27T10:04:16.566Z,99449.61
2019-03-27T10:06:47.441Z,99451.86
2019-03-27T10:09:18.418Z,99450.02
2019-03-27T10:11:49.337Z,99439.84
2019-03-27T10:14:37.711Z,99448.59
2019-03-27T10:17:08.797Z,99447.22
2019-03-27T10:19:39.977Z,99451.28
2019-03-27T10:22:10.886Z,99457.80
2019-03-27T10:24:41.820Z,99456.06
2019-03-27T10:27:12.859Z,99458.31
2019-03-27T10:29:43.764Z,99456.95
2019-03-27T10:32:14.698Z,99455.18
2019-03-27T10:34:47.169Z,99456.88
2019-03-27T10:37:26.660Z,99463.68
2019-03-27T10:39:57.562Z,99466.42
2019-03-27T10:42:29.329Z,99462.09
2019-03-27T10:45:00.398Z,99464.91
2019-03-27T10:47:31.299Z,99471.44
2019-03-27T10:50:02.334Z,99469.91
2019-03-27T10:52:33.292Z,99473.81
2019-03-27T10:55:05.302Z,99470.78
2019-03-27T10:57:36.210Z,99472.12
2019-03-27T11:00:11.114Z,99476.69
2019-03-27T11:02:42.232Z,99483.98
2019-03-27T11:05:13.405Z,99485.79
2019-03-27T11:07:44.830Z,99488.27
2019-03-27T11:10:16.098Z,99484.63
2019-03-27T11:12:47.117Z,99472.15
2019-03-27T11:15:18.598Z,99478.85
2019-03-27T11:17:49.615Z,99481.69
2019-03-27T11:20:30.775Z,99477.76
2019-03-27T11:22:53.602Z,99473.58
2019-03-27T11:25:24.573Z,99481.23
2019-03-27T11:27:55.542Z,99486.20
2019-03-27T11:30:37.948Z,99481.58
2019-03-27T11:33:09.397Z,99476.63
2019-03-27T11:35:40.630Z,99481.72
2019-03-27T11:38:11.675Z,99479.67
2019-03-27T11:40:42.702Z,99477.31
2019-03-27T11:43:13.744Z,99478.59
2019-03-27T11:45:44.781Z,99482.05
2019-03-27T11:48:15.984Z,99481.59
2019-03-27T11:50:46.999Z,99479.70
2019-03-27T11:53:18.000Z,99477.45
2019-03-27T11:55:49.100Z,99481.27
2019-03-27T11:58:20.664Z,99475.42
2019-03-27T12:00:54.857Z,99475.78
2019-03-27T12:03:24.282Z,99473.52
2019-03-27T12:05:55.672Z,99473.93
2019-03-27T12:08:26.758Z,99470.86
2019-03-27T12:10:57.708Z,99478.78
2019-03-27T12:13:28.748Z,99477.02
2019-03-27T12:15:59.704Z,99472.81
2019-03-27T12:18:32.162Z,99475.14
2019-03-27T12:21:03.454Z,99478.83
2019-03-27T12:23:35.258Z,99470.27
2019-03-27T12:26:07.970Z,99468.01
2019-03-27T12:28:44.629Z,99463.71
2019-03-27T12:31:23.650Z,99464.44
2019-03-27T12:33:55.180Z,99471.84
2019-03-27T12:36:26.181Z,99469.95
2019-03-27T12:38:57.184Z,99470.64
2019-03-27T12:41:28.264Z,99463.30
2019-03-27T12:44:02.430Z,99456.17
2019-03-27T12:46:32.146Z,99463.52
2019-03-27T12:49:03.278Z,99454.56
2019-03-27T12:51:34.464Z,99458.73
2019-03-27T12:54:06.604Z,99437.87
2019-03-27T12:56:37.987Z,99445.73
2019-03-27T12:59:09.022Z,99438.97
2019-03-27T13:01:40.041Z,99448.50
2019-03-27T13:04:12.862Z,99435.81
2019-03-27T13:06:44.097Z,99437.83
2019-03-27T13:09:15.723Z,99442.02
2019-03-27T13:11:46.826Z,99441.02
2019-03-27T13:14:18.010Z,99438.06
2019-03-27T13:16:52.266Z,99425.47
2019-03-27T13:19:25.037Z,99424.06
2019-03-27T13:21:56.288Z,99432.72
2019-03-27T13:24:30.877Z,99434.38
2019-03-27T13:27:03.950Z,99432.49
2019-03-27T13:29:35.243Z,99431.64
2019-03-27T13:32:06.307Z,99421.97
2019-03-27T13:34:37.371Z,99430.70
2019-03-27T13:37:08.358Z,99427.41
2019-03-27T13:39:41.028Z,99428.86
2019-03-27T13:42:12.301Z,99422.33
2019-03-27T13:44:43.591Z,99422.53
2019-03-27T13:47:14.535Z,99426.62
2019-03-27T13:49:45.667Z,99418.01
2019-03-27T13:52:16.614Z,99420.11
2019-03-27T13:54:47.592Z,99417.73
2019-03-27T13:57:18.606Z,99412.11
2019-03-27T13:59:49.675Z,99415.70
2019-03-27T14:02:20.746Z,99410.23
2019-03-27T14:04:52.064Z,99416.04
2019-03-27T14:07:23.179Z,99400.59
2019-03-27T14:09:54.144Z,99399.95
2019-03-27T14:12:25.219Z,99402.25
2019-03-27T14:14:57.760Z,99398.41
2019-03-27T14:17:28.886Z,99395.70
2019-03-27T14:20:02.838Z,99395.95
2019-03-27T14:22:33.861Z,99393.44
2019-03-27T14:25:07.730Z,99396.91
2019-03-27T14:27:38.872Z,99401.22
2019-03-27T14:30:12.625Z,99408.04
2019-03-27T14:32:43.604Z,99410.59
2019-03-27T14:35:14.649Z,99400.94
2019-03-27T14:37:45.668Z,99407.33
2019-03-27T14:40:16.877Z,99408.23
2019-03-27T14:42:47.929Z,99410.31
2019-03-27T14:45:18.943Z,99413.02
2019-03-27T14:47:49.995Z,99415.61
2019-03-27T14:50:20.897Z,99414.36
2019-03-27T14:52:51.969Z,99411.63
2019-03-27T14:55:22.941Z,99414.00
2019-03-27T14:57:54.085Z,99404.58
2019-03-27T15:00:25.270Z,99413.83
2019-03-27T15:02:56.341Z,99413.87
2019-03-27T15:05:27.561Z,99407.49
2019-03-27T15:07:58.761Z,99410.99
2019-03-27T15:10:29.605Z,99406.33
2019-03-27T15:13:00.664Z,99416.02
2019-03-27T15:15:31.621Z,99407.98
2019-03-27T15:18:02.575Z,99409.98
2019-03-27T15:20:33.579Z,99409.80
2019-03-27T15:23:04.642Z,99408.19
2019-03-27T15:25:35.668Z,99406.41
2019-03-27T15:28:06.822Z,99406.74
2019-03-27T15:30:37.791Z,99414.10
2019-03-27T15:33:08.954Z,99404.88
2019-03-27T15:35:39.848Z,99401.56
2019-03-27T15:38:10.877Z,99401.44
2019-03-27T15:40:44.390Z,99401.28
2019-03-27T15:43:15.430Z,99403.85
2019-03-27T15:45:46.540Z,99404.38
2019-03-27T15:48:17.614Z,99401.00
2019-03-27T15:50:55.516Z,99403.42
2019-03-27T15:53:21.264Z,99407.58
2019-03-27T15:55:52.446Z,99410.27
2019-03-27T15:58:23.541Z,99407.86
2019-03-27T16:00:54.570Z,99407.25
2019-03-27T16:03:27.152Z,99396.88
2019-03-27T16:05:58.918Z,99405.35
2019-03-27T16:08:30.710Z,99413.40
2019-03-27T16:11:01.692Z,99415.80
2019-03-27T16:13:32.796Z,99419.02
2019-03-27T16:16:03.961Z,99413.95
2019-03-27T16:18:35.117Z,99422.27
2019-03-27T16:21:06.466Z,99418.83
2019-03-27T16:23:37.714Z,99428.41
2019-03-27T16:26:09.012Z,99419.14
2019-03-27T16:28:40.756Z,99425.07
2019-03-27T16:31:12.242Z,99432.18
2019-03-27T16:33:43.366Z,99430.16
2019-03-27T16:36:14.628Z,99434.20
2019-03-27T16:38:46.326Z,99438.65
2019-03-27T16:41:17.496Z,99444.95
2019-03-27T16:43:48.854Z,99444.77
2019-03-27T16:46:19.952Z,99449.19
2019-03-27T16:48:51.104Z,99445.90
2019-03-27T16:51:22.138Z,99448.59
2019-03-27T16:53:53.233Z,99450.20
2019-03-27T16:56:25.534Z,99461.62
2019-03-27T16:58:57.266Z,99453.70
2019-03-27T17:01:28.875Z,99459.52
2019-03-27T17:04:00.344Z,99448.56
2019-03-27T17:06:31.536Z,99461.74
2019-03-27T17:09:02.861Z,99451.20
2019-03-27T17:11:34.030Z,99456.62
2019-03-27T17:14:05.148Z,99455.38
2019-03-27T17:16:36.296Z,99458.98
2019-03-27T17:19:07.355Z,99464.50
2019-03-27T17:21:38.371Z,99464.61
2019-03-27T17:24:09.575Z,99467.38
2019-03-27T17:26:40.822Z,99466.09
2019-03-27T17:29:39.160Z,99467.98
2019-03-27T17:32:17.661Z,99474.09
2019-03-27T17:34:51.816Z,99476.50
2019-03-27T17:37:21.458Z,99474.91
2019-03-27T17:39:52.504Z,99484.62
2019-03-27T17:42:23.684Z,99480.02
2019-03-27T17:44:54.721Z,99482.73
2019-03-27T17:47:25.806Z,99488.05
2019-03-27T17:49:57.525Z,99491.63
2019-03-27T17:52:28.671Z,99497.75
2019-03-27T17:54:59.909Z,99498.71
2019-03-27T17:57:30.885Z,99500.14
2019-03-27T18:00:02.155Z,99500.21
2019-03-27T18:02:33.171Z,99501.95
2019-03-27T18:05:05.914Z,99502.42
2019-03-27T18:07:36.957Z,99510.26
2019-03-27T18:10:08.377Z,99508.16
2019-03-27T18:12:39.393Z,99506.89
2019-03-27T18:15:10.708Z,99507.77
2019-03-27T18:17:41.892Z,99501.75
2019-03-27T18:20:12.960Z,99509.02
2019-03-27T18:22:43.993Z,99506.09
2019-03-27T18:25:15.217Z,99505.66
2019-03-27T18:27:46.112Z,99504.80
2019-03-27T18:30:17.261Z,99506.98
2019-03-27T18:32:48.239Z,99511.77
2019-03-27T18:35:19.280Z,99511.79
2019-03-27T18:37:50.435Z,99510.97
2019-03-27T18:40:21.469Z,99513.63
2019-03-27T18:42:52.601Z,99519.33
2019-03-27T18:45:23.640Z,99526.27
2019-03-27T18:47:54.608Z,99528.44
2019-03-27T18:50:25.620Z,99524.98
2019-03-27T18:52:56.765Z,99529.33
2019-03-27T18:55:27.937Z,99532.84
2019-03-27T18:58:00.604Z,99535.87
2019-03-27T19:00:32.031Z,99540.20
2019-03-27T19:03:03.323Z,99549.31
2019-03-27T19:05:34.217Z,99546.27
2019-03-27T19:08:05.322Z,99547.14
2019-03-27T19:10:36.392Z,99547.96
2019-03-27T19:13:07.688Z,99553.63
2019-03-27T19:15:38.793Z,99551.95
2019-03-27T19:18:10.148Z,99558.06
2019-03-27T19:20:41.161Z,99549.88
2019-03-27T19:23:12.234Z,99549.93
2019-03-27T19:25:43.255Z,99553.88
2019-03-27T19:28:14.275Z,99555.61
2019-03-27T19:30:45.311Z,99559.94
2019-03-27T19:33:16.342Z,99556.10
2019-03-27T19:35:47.515Z,99558.70
2019-03-27T19:38:18.467Z,99554.38
2019-03-27T19:40:49.430Z,99550.91
2019-03-27T19:43:20.372Z,99553.05
2019-03-27T19:46:01.288Z,99555.17
2019-03-27T19:48:35.972Z,99553.45
2019-03-27T19:51:07.052Z,99556.05
2019-03-27T19:53:38.040Z,99560.38
2019-03-27T19:56:09.049Z,99559.93
2019-03-27T19:58:40.085Z,99556.10
2019-03-27T20:01:11.111Z,99559.59
2019-03-27T20:03:42.078Z,99560.44
2019-03-27T20:06:13.250Z,99566.09
2019-03-27T20:08:44.462Z,99566.14
2019-03-27T20:11:18.055Z,99572.21
2019-03-27T20:13:49.560Z,99572.64
2019-03-27T20:16:20.653Z,99572.21
2019-03-27T20:18:51.848Z,99572.63
2019-03-27T20:21:23.110Z,99573.08
2019-03-27T20:23:54.050Z,99578.70
2019-03-27T20:26:25.566Z,99571.80
2019-03-27T20:28:56.562Z,99578.73
2019-03-27T20:31:27.524Z,99578.38
2019-03-27T20:33:58.538Z,99581.02
2019-03-27T20:36:30.186Z,99585.03
2019-03-27T20:39:04.599Z,99582.91
2019-03-27T20:41:35.699Z,99588.95
2019-03-27T20:44:07.026Z,99584.28
2019-03-27T20:46:38.115Z,99585.62
2019-03-27T20:49:09.575Z,99584.83
2019-03-27T20:51:40.453Z,99583.97
2019-03-27T20:54:11.502Z,99582.28
2019-03-27T20:56:42.627Z,99587.42
2019-03-27T20:59:13.643Z,99586.98
2019-03-27T21:01:44.705Z,99593.48
2019-03-27T21:04:15.717Z,99587.44
2019-03-27T21:06:48.426Z,99589.59
2019-03-27T21:09:19.389Z,99592.23
2019-03-27T21:11:50.402Z,99593.54
2019-03-27T21:14:21.682Z,99597.44
2019-03-27T21:16:52.740Z,99595.72
2019-03-27T21:19:23.969Z,99593.55
2019-03-27T21:21:55.444Z,99594.89
2019-03-27T21:24:26.537Z,99588.85
2019-03-27T21:26:57.501Z,99595.38
2019-03-27T21:29:28.615Z,99593.22
2019-03-27T21:31:59.667Z,99593.65
2019-03-27T21:34:30.910Z,99591.06
2019-03-27T21:37:01.953Z,99594.95
2019-03-27T21:39:32.893Z,99601.88
2019-03-27T21:42:04.091Z,99606.20
2019-03-27T21:44:34.974Z,99599.71
2019-03-27T21:47:05.930Z,99606.63
2019-03-27T21:49:36.901Z,99607.93
2019-03-27T21:52:07.893Z,99601.02
2019-03-27T21:54:39.002Z,99601.48
2019-03-27T21:57:10.143Z,99603.61
2019-03-27T21:59:41.301Z,99603.12
2019-03-27T22:02:12.267Z,99605.23
2019-03-27T22:04:43.372Z,99606.19
2019-03-27T22:07:14.379Z,99610.56
2019-03-27T22:09:45.427Z,99606.25
2019-03-27T22:12:16.614Z,99604.95
2019-03-27T22:14:47.613Z,99609.76
2019-03-27T22:17:18.619Z,99613.26
2019-03-27T22:19:49.585Z,99615.03
2019-03-27T22:22:20.939Z,99619.78
2019-03-27T22:24:51.919Z,99623.25
2019-03-27T22:27:22.773Z,99618.06
2019-03-27T22:29:53.819Z,99620.66
2019-03-27T22:32:24.907Z,99623.25
2019-03-27T22:34:55.781Z,99623.68
2019-03-27T22:37:41.027Z,99628.44
2019-03-27T22:40:12.375Z,99626.27
2019-03-27T22:42:43.354Z,99621.56
2019-03-27T22:45:14.590Z,99630.63
2019-03-27T22:47:45.503Z,99623.28
2019-03-27T22:50:16.636Z,99631.50
2019-03-27T22:52:49.616Z,99624.15
2019-03-27T22:55:20.659Z,99626.31
2019-03-27T22:57:51.952Z,99630.64
2019-03-27T23:00:25.293Z,99625.91
2019-03-27T23:02:57.999Z,99624.62
2019-03-27T23:05:30.313Z,99623.75
2019-03-27T23:08:01.500Z,99623.33
2019-03-27T23:10:32.639Z,99630.27
2019-03-27T23:13:03.826Z,99627.67
2019-03-27T23:15:35.463Z,99625.95
2019-03-27T23:18:06.537Z,99622.53
2019-03-27T23:20:37.520Z,99621.23
2019-03-27T23:23:08.485Z,99622.52
2019-03-27T23:25:39.543Z,99625.15
2019-03-27T23:28:10.522Z,99625.58
2019-03-27T23:30:41.601Z,99626.47
2019-03-27T23:33:12.636Z,99618.30
2019-03-27T23:35:44.216Z,99623.47
2019-03-27T23:38:15.588Z,99626.92
2019-03-27T23:40:46.631Z,99625.66
2019-03-27T23:43:17.632Z,99622.63
2019-03-27T23:45:48.672Z,99622.63
2019-03-27T23:48:19.564Z,99623.47
2019-03-27T23:50:50.592Z,99622.17
2019-03-27T23:53:21.632Z,99623.03
2019-03-27T23:55:52.747Z,99620.02
2019-03-27T23:58:23.722Z,99619.59
